Time;durP1;ratioP1;P1;durP2;ratioP2;P2;SDS_P1;SDS_P2;PMS_P1;PMS_P2;Temp;Humidity;BMP_temperature;BMP_pressure;BME280_temperature;BME280_humidity;BME280_pressure;Samples;Min_cycle;Max_cycle;Signal;HPM_P1;HPM_P2
2022/09/02 00:02:11;;;;;;;20.02;15.40;;;;;;;18.24;100.00;92874.56;5090709;28;20048;-72
2022/09/02 00:04:39;;;;;;;21.55;14.68;;;;;;;18.29;100.00;92871.97;5090242;28;20040;-73
2022/09/02 00:07:05;;;;;;;21.52;15.10;;;;;;;18.24;100.00;92863.41;5090522;28;20036;-73
2022/09/02 00:09:32;;;;;;;23.63;16.58;;;;;;;18.18;100.00;92869.69;5090431;28;20048;-73
2022/09/02 00:11:59;;;;;;;22.52;15.90;;;;;;;18.27;100.00;92868.06;5090657;28;20063;-72
2022/09/02 00:14:31;;;;;;;19.92;14.95;;;;;;;18.35;100.00;92870.13;5090313;28;20055;-72
2022/09/02 00:16:59;;;;;;;18.90;15.48;;;;;;;18.44;100.00;92878.16;5090899;28;20109;-73
2022/09/02 00:19:27;;;;;;;18.90;15.45;;;;;;;18.54;100.00;92878.13;5084571;28;20040;-72
2022/09/02 00:21:55;;;;;;;18.23;15.07;;;;;;;18.56;100.00;92878.63;5090141;28;21584;-73
2022/09/02 00:24:23;;;;;;;18.02;14.85;;;;;;;18.69;100.00;92885.06;5089939;28;20404;-73
2022/09/02 00:26:50;;;;;;;21.13;15.07;;;;;;;18.71;100.00;92887.41;5089295;28;20044;-73
2022/09/02 00:29:18;;;;;;;21.40;15.55;;;;;;;18.75;100.00;92895.44;5089001;28;20093;-73
2022/09/02 00:31:47;;;;;;;22.50;15.85;;;;;;;18.81;100.00;92894.38;5089540;28;20089;-73
2022/09/02 00:34:14;;;;;;;18.88;14.40;;;;;;;18.82;100.00;92890.72;5088183;28;20550;-73
2022/09/02 00:36:41;;;;;;;20.23;13.98;;;;;;;18.89;100.00;92893.03;5089409;28;20040;-73
2022/09/02 00:39:08;;;;;;;21.15;14.68;;;;;;;18.92;100.00;92889.88;5089740;28;20401;-73
2022/09/02 00:41:36;;;;;;;21.40;15.50;;;;;;;18.98;100.00;92893.22;5089196;28;20052;-73
2022/09/02 00:44:06;;;;;;;23.02;15.30;;;;;;;18.96;100.00;92888.28;5089656;28;20044;-73
2022/09/02 00:46:33;;;;;;;20.58;16.63;;;;;;;19.00;100.00;92897.13;5089317;28;20036;-73
2022/09/02 00:49:12;;;;;;;19.60;15.00;;;;;;;19.01;100.00;92898.69;5088499;28;20139;-73
2022/09/02 00:51:43;;;;;;;22.58;16.15;;;;;;;19.04;100.00;92892.19;5089709;28;20048;-73
2022/09/02 00:54:12;;;;;;;24.40;16.42;;;;;;;18.96;100.00;92888.28;5089582;28;20048;-73
2022/09/02 00:56:43;;;;;;;21.55;16.98;;;;;;;18.75;100.00;92890.25;5088790;28;20127;-73
2022/09/02 00:59:15;;;;;;;22.42;15.68;;;;;;;18.70;100.00;92906.63;5088909;28;20093;-73
2022/09/02 01:01:43;;;;;;;23.13;16.75;;;;;;;18.73;100.00;92921.72;5088743;28;20526;-73
2022/09/02 01:04:11;;;;;;;23.73;16.52;;;;;;;18.72;100.00;92908.97;5089005;28;20487;-73
2022/09/02 01:06:38;;;;;;;25.05;16.65;;;;;;;18.49;100.00;92904.13;5089038;28;20125;-73
2022/09/02 01:09:10;;;;;;;27.40;18.30;;;;;;;18.28;100.00;92912.00;5089012;28;20048;-73
2022/09/02 01:11:40;;;;;;;22.05;15.70;;;;;;;17.85;100.00;92908.94;5089041;28;20048;-74
2022/09/02 01:14:08;;;;;;;25.17;17.88;;;;;;;17.62;100.00;92911.84;5089157;28;20109;-72
2022/09/02 01:16:40;;;;;;;20.80;15.13;;;;;;;17.42;100.00;92907.44;5088946;28;20412;-72
2022/09/02 01:19:19;;;;;;;23.02;16.40;;;;;;;17.42;100.00;92902.22;5089214;28;20036;-72
2022/09/02 01:21:49;;;;;;;20.52;15.38;;;;;;;17.68;100.00;92910.00;5088740;28;20052;-72
2022/09/02 01:24:17;;;;;;;18.90;13.85;;;;;;;17.81;100.00;92920.91;5089164;28;20048;-71
2022/09/02 01:26:44;;;;;;;16.75;13.27;;;;;;;17.90;100.00;92919.34;5089039;28;20050;-71
2022/09/02 01:29:12;;;;;;;15.40;12.60;;;;;;;18.02;100.00;92914.63;5088771;28;20051;-71
2022/09/02 01:31:39;;;;;;;17.48;11.70;;;;;;;18.08;100.00;92915.44;5089070;28;20151;-71
2022/09/02 01:34:06;;;;;;;17.40;11.32;;;;;;;18.13;100.00;92912.03;5088746;28;20123;-71
2022/09/02 01:36:33;;;;;;;13.27;10.82;;;;;;;18.22;100.00;92915.66;5088487;28;20488;-71
2022/09/02 01:39:01;;;;;;;12.32;9.20;;;;;;;18.25;100.00;92911.75;5088997;28;20048;-71
2022/09/02 01:41:28;;;;;;;10.82;8.32;;;;;;;18.28;100.00;92909.41;5090913;28;20059;-71
2022/09/02 01:43:56;;;;;;;11.23;8.82;;;;;;;18.34;100.00;92910.19;5095745;28;20047;-71
2022/09/02 01:46:23;;;;;;;11.73;8.10;;;;;;;18.38;100.00;92905.22;5095685;28;20518;-71
2022/09/02 01:48:50;;;;;;;8.68;7.30;;;;;;;18.40;100.00;92898.72;5095215;28;20044;-71
2022/09/02 01:51:19;;;;;;;8.13;6.30;;;;;;;18.42;100.00;92899.22;5095238;28;20491;-71
2022/09/02 01:53:47;;;;;;;7.22;5.97;;;;;;;18.45;100.00;92884.91;5095542;28;20044;-71
2022/09/02 01:56:16;;;;;;;9.63;6.53;;;;;;;18.35;100.00;92874.53;5095623;28;20043;-71
2022/09/02 01:58:43;;;;;;;8.45;5.90;;;;;;;18.46;100.00;92875.28;5095582;28;20051;-71
2022/09/02 02:01:10;;;;;;;6.90;5.50;;;;;;;18.46;100.00;92878.66;5095286;28;20101;-71
2022/09/02 02:03:38;;;;;;;8.88;6.28;;;;;;;18.48;100.00;92870.59;5095518;28;20044;-71
2022/09/02 02:06:08;;;;;;;7.05;5.80;;;;;;;18.47;100.00;92867.19;5095124;28;20453;-71
2022/09/02 02:08:35;;;;;;;7.80;5.68;;;;;;;18.45;100.00;92864.09;5095278;28;20600;-72
2022/09/02 02:11:02;;;;;;;8.07;6.10;;;;;;;18.51;100.00;92864.88;5095160;28;20040;-72
2022/09/02 02:13:30;;;;;;;7.68;5.38;;;;;;;18.51;100.00;92857.06;5095090;28;20366;-72
2022/09/02 02:15:57;;;;;;;6.55;5.47;;;;;;;18.50;100.00;92855.47;5095106;28;20492;-72
2022/09/02 02:18:24;;;;;;;6.18;5.18;;;;;;;18.54;100.00;92853.91;5095249;28;20093;-72
2022/09/02 02:20:51;;;;;;;6.40;4.70;;;;;;;18.54;100.00;92851.31;5095203;28;20453;-72
2022/09/02 02:23:18;;;;;;;6.72;5.07;;;;;;;18.52;100.00;92845.63;5094953;28;20093;-72
2022/09/02 02:25:44;;;;;;;5.80;4.70;;;;;;;18.50;100.00;92837.28;5095242;28;20409;-72
2022/09/02 02:28:11;;;;;;;5.90;4.28;;;;;;;18.33;100.00;92824.63;5094685;28;20500;-72
2022/09/02 02:30:40;;;;;;;7.72;4.70;;;;;;;18.45;100.00;92840.69;5094954;28;20078;-72
2022/09/02 02:33:07;;;;;;;6.18;4.72;;;;;;;18.46;100.00;92841.47;5095066;28;20047;-72
2022/09/02 02:35:33;;;;;;;6.38;4.55;;;;;;;18.43;100.00;92838.34;5094641;28;20048;-72
2022/09/02 02:38:00;;;;;;;6.28;4.43;;;;;;;18.43;100.00;92848.00;5095156;28;20043;-72
2022/09/02 02:40:27;;;;;;;5.50;4.55;;;;;;;18.45;100.00;92834.69;5094920;28;20055;-72
2022/09/02 02:42:54;;;;;;;5.70;4.95;;;;;;;18.45;100.00;92834.69;5095084;28;20040;-73
2022/09/02 02:45:22;;;;;;;5.75;4.50;;;;;;;18.45;100.00;92832.88;5094782;28;20549;-73
2022/09/02 02:47:51;;;;;;;5.90;4.60;;;;;;;18.44;100.00;92826.16;5094900;28;20396;-73
2022/09/02 02:50:20;;;;;;;5.32;4.43;;;;;;;18.44;100.00;92836.53;5095022;28;20153;-73
2022/09/02 02:52:47;;;;;;;7.60;4.63;;;;;;;18.44;100.00;92828.75;5093108;28;20558;-73
2022/09/02 02:55:15;;;;;;;5.32;4.05;;;;;;;18.44;100.00;92826.16;5091912;28;20048;-73
2022/09/02 02:57:43;;;;;;;6.22;4.38;;;;;;;18.45;100.00;92819.09;5091535;28;20491;-73
2022/09/02 03:00:14;;;;;;;5.35;4.30;;;;;;;18.16;100.00;92779.72;5091299;28;20561;-73
2022/09/02 03:02:41;;;;;;;6.38;4.20;;;;;;;18.42;100.00;92826.41;5091820;28;20074;-72
2022/09/02 03:05:11;;;;;;;7.70;4.43;;;;;;;18.41;100.00;92822.25;5091724;28;20113;-72
2022/09/02 03:07:39;;;;;;;4.80;3.80;;;;;;;18.41;100.00;92824.84;5091693;28;20040;-72
2022/09/02 03:10:08;;;;;;;5.60;4.00;;;;;;;18.39;100.00;92821.75;5091291;28;20040;-72
2022/09/02 03:12:36;;;;;;;5.75;3.97;;;;;;;18.38;100.00;92819.41;5091448;28;20113;-72
2022/09/02 03:15:03;;;;;;;5.80;3.95;;;;;;;18.35;100.00;92823.31;5091507;28;20415;-72
2022/09/02 03:17:30;;;;;;;9.50;4.47;;;;;;;18.33;100.00;92824.63;5091270;28;20052;-73
2022/09/02 03:19:58;;;;;;;5.43;4.22;;;;;;;18.32;100.00;92834.25;5091192;28;20050;-73
2022/09/02 03:22:27;;;;;;;5.25;4.05;;;;;;;18.22;100.00;92813.50;5090895;28;20064;-73
2022/09/02 03:24:53;;;;;;;5.43;4.28;;;;;;;18.28;100.00;92826.22;5091547;28;20043;-73
2022/09/02 03:27:20;;;;;;;6.68;4.53;;;;;;;18.27;100.00;92835.06;5091421;28;20048;-73
2022/09/02 03:29:47;;;;;;;6.30;4.57;;;;;;;18.23;100.00;92830.66;5091216;28;20055;-73
2022/09/02 03:32:14;;;;;;;5.22;4.00;;;;;;;18.25;100.00;92836.38;5091528;28;20661;-73
2022/09/02 03:34:41;;;;;;;5.47;4.03;;;;;;;18.22;100.00;92837.69;5091082;28;20153;-73
2022/09/02 03:37:08;;;;;;;6.15;4.28;;;;;;;18.23;100.00;92834.03;5091441;28;20050;-73
2022/09/02 03:39:37;;;;;;;8.90;4.45;;;;;;;18.22;100.00;92832.47;5091323;28;20048;-74
2022/09/02 03:42:04;;;;;;;7.18;3.60;;;;;;;18.24;100.00;92843.38;5091307;28;20126;-73
2022/09/02 03:44:32;;;;;;;7.10;4.30;;;;;;;18.22;100.00;92842.88;5090870;28;20488;-73
2022/09/02 03:46:58;;;;;;;4.70;3.70;;;;;;;18.17;100.00;92842.88;5091277;28;20095;-73
2022/09/02 03:49:25;;;;;;;6.97;3.92;;;;;;;18.12;100.00;92838.50;5090900;28;20047;-72
2022/09/02 03:51:52;;;;;;;4.93;3.63;;;;;;;18.12;100.00;92851.50;5090594;28;20056;-72
2022/09/02 03:54:19;;;;;;;6.28;3.42;;;;;;;18.12;100.00;92850.69;5090894;28;20044;-72
2022/09/02 03:56:47;;;;;;;5.38;3.40;;;;;;;18.15;100.00;92850.94;5090817;28;20052;-73
2022/09/02 03:59:14;;;;;;;6.47;3.60;;;;;;;18.13;100.00;92852.25;5076826;28;20048;-72
2022/09/02 04:01:41;;;;;;;6.40;3.83;;;;;;;18.10;100.00;92858.00;5090512;28;20093;-73
2022/09/02 04:04:08;;;;;;;6.47;4.10;;;;;;;17.99;100.00;92858.00;5090156;28;20105;-73
2022/09/02 04:06:34;;;;;;;8.00;4.72;;;;;;;17.91;100.00;92863.72;5082620;28;20098;-72
2022/09/02 04:09:02;;;;;;;10.55;6.18;;;;;;;17.89;100.00;92858.03;5089633;28;20051;-72
2022/09/02 04:11:28;;;;;;;8.55;6.07;;;;;;;17.90;100.00;92856.97;5090267;28;20047;-73
2022/09/02 04:13:57;;;;;;;11.38;7.13;;;;;;;17.78;100.00;92852.09;5090301;28;20040;-73
2022/09/02 04:16:27;;;;;;;10.65;7.47;;;;;;;17.93;100.00;92866.84;5083002;28;20094;-73
2022/09/02 04:18:54;;;;;;;10.95;7.18;;;;;;;17.96;100.00;92874.09;5090545;28;20480;-73
2022/09/02 04:21:21;;;;;;;12.63;7.88;;;;;;;18.00;100.00;92874.34;5090182;28;20097;-73
2022/09/02 04:23:48;;;;;;;10.60;7.60;;;;;;;18.01;100.00;92870.72;5083244;28;20538;-73
2022/09/02 04:26:17;;;;;;;10.90;7.68;;;;;;;18.03;100.00;92874.63;5079720;28;20097;-73
2022/09/02 04:28:44;;;;;;;10.48;7.50;;;;;;;18.09;100.00;92879.84;5090381;28;20048;-73
2022/09/02 04:31:14;;;;;;;12.88;7.72;;;;;;;18.03;100.00;92879.81;5090178;28;20043;-73
2022/09/02 04:33:41;;;;;;;12.32;8.10;;;;;;;18.07;100.00;92874.13;5089766;28;20056;-73
2022/09/02 04:36:11;;;;;;;11.15;8.50;;;;;;;18.12;100.00;92887.88;5090236;28;20491;-73
2022/09/02 04:38:38;;;;;;;13.80;9.43;;;;;;;18.11;100.00;92885.53;5089930;28;20097;-74
2022/09/02 04:41:06;;;;;;;12.98;8.98;;;;;;;18.15;100.00;92891.78;5087710;28;20052;-74
2022/09/02 04:43:33;;;;;;;12.85;8.65;;;;;;;18.14;100.00;92890.19;5090140;28;20109;-73
2022/09/02 04:46:00;;;;;;;9.55;6.55;;;;;;;18.11;100.00;92901.13;5090090;28;20479;-73
2022/09/02 04:48:28;;;;;;;11.43;6.80;;;;;;;18.11;100.00;92906.34;5090151;28;20055;-73
2022/09/02 04:50:55;;;;;;;9.80;6.45;;;;;;;18.12;100.00;92911.28;5089856;28;20090;-73
2022/09/02 04:53:22;;;;;;;9.95;6.70;;;;;;;18.16;100.00;92907.09;5090078;28;20056;-73
2022/09/02 04:55:48;;;;;;;9.93;5.80;;;;;;;18.19;100.00;92905.03;5089645;28;20490;-73
2022/09/02 04:58:16;;;;;;;8.93;5.38;;;;;;;18.23;100.00;92906.06;5089666;28;20052;-73
2022/09/02 05:00:43;;;;;;;8.10;6.15;;;;;;;18.24;100.00;92912.81;5089588;28;20036;-73
2022/09/02 05:03:10;;;;;;;9.45;5.78;;;;;;;18.23;100.00;92914.63;5088471;28;20420;-73
2022/09/02 05:05:39;;;;;;;7.85;5.57;;;;;;;18.25;100.00;92912.53;5086207;28;20050;-73
2022/09/02 05:08:06;;;;;;;6.88;5.13;;;;;;;18.26;100.00;92914.09;5088806;28;20507;-73
2022/09/02 05:10:33;;;;;;;8.80;5.63;;;;;;;18.29;100.00;92923.19;5089098;28;20060;-73
2022/09/02 05:13:00;;;;;;;7.15;5.07;;;;;;;18.28;100.00;92925.00;5089804;28;20089;-72
2022/09/02 05:15:27;;;;;;;8.85;5.57;;;;;;;18.27;100.00;92927.84;5089055;28;20040;-73
2022/09/02 05:17:54;;;;;;;8.40;4.93;;;;;;;18.26;100.00;92934.09;5088865;28;20050;-73
2022/09/02 05:20:21;;;;;;;9.77;6.28;;;;;;;18.27;100.00;92931.25;5088771;28;20679;-73
2022/09/02 05:22:49;;;;;;;10.38;6.95;;;;;;;18.26;100.00;92928.91;5089322;28;20063;-73
2022/09/02 05:25:16;;;;;;;13.48;7.90;;;;;;;18.26;100.00;92928.91;5089058;28;20044;-73
2022/09/02 05:27:43;;;;;;;10.77;6.30;;;;;;;18.29;100.00;92933.59;5089109;28;20495;-73
2022/09/02 05:30:10;;;;;;;12.13;7.18;;;;;;;18.30;100.00;92922.16;5088468;28;20078;-73
2022/09/02 05:32:37;;;;;;;9.02;6.40;;;;;;;18.27;100.00;92917.47;5088585;28;20483;-73
2022/09/02 05:35:04;;;;;;;9.82;6.32;;;;;;;18.32;100.00;92925.25;5085064;28;20464;-73
2022/09/02 05:37:31;;;;;;;7.85;5.55;;;;;;;18.37;100.00;92914.84;5087313;28;20054;-73
2022/09/02 05:39:59;;;;;;;10.98;6.97;;;;;;;18.40;100.00;92914.31;5089327;28;20397;-73
2022/09/02 05:42:26;;;;;;;9.82;7.30;;;;;;;18.35;100.00;92901.34;5088998;28;20486;-73
2022/09/02 05:44:53;;;;;;;10.27;7.75;;;;;;;18.49;100.00;92917.16;5089393;28;20048;-72
2022/09/02 05:47:20;;;;;;;12.10;8.52;;;;;;;18.49;100.00;92917.16;5089496;28;20105;-72
2022/09/02 05:49:47;;;;;;;13.15;8.43;;;;;;;18.52;100.00;92911.41;5089192;28;20048;-73
2022/09/02 05:52:13;;;;;;;12.65;8.57;;;;;;;18.52;100.00;92902.84;5089005;28;20102;-73
2022/09/02 05:54:41;;;;;;;13.65;8.63;;;;;;;18.58;100.00;92912.16;5089152;28;20044;-73
2022/09/02 05:57:12;;;;;;;15.77;9.30;;;;;;;18.63;100.00;92906.16;5088786;28;20620;-73
2022/09/02 05:59:41;;;;;;;12.82;8.48;;;;;;;18.62;100.00;92899.41;5088829;28;20044;-73
2022/09/02 06:02:09;;;;;;;12.18;8.85;;;;;;;18.72;100.00;92919.38;5087299;28;20147;-73
2022/09/02 06:04:39;;;;;;;12.55;8.50;;;;;;;18.77;100.00;92916.75;5088742;28;20040;-73
2022/09/02 06:07:06;;;;;;;12.55;8.77;;;;;;;18.85;100.00;92912.81;5088816;28;20044;-73
2022/09/02 06:09:33;;;;;;;13.15;9.23;;;;;;;18.87;100.00;92908.91;5088489;28;20047;-73
2022/09/02 06:12:00;;;;;;;15.77;9.82;;;;;;;18.93;100.00;92912.28;5088952;28;20056;-73
2022/09/02 06:14:29;;;;;;;14.45;10.43;;;;;;;18.99;100.00;92905.97;5088634;28;20040;-73
2022/09/02 06:16:58;;;;;;;14.65;9.43;;;;;;;19.04;100.00;92916.41;5088997;28;20048;-73
2022/09/02 06:19:27;;;;;;;15.77;9.35;;;;;;;19.08;100.00;92920.00;5088769;28;20381;-73
2022/09/02 06:21:55;;;;;;;13.85;9.93;;;;;;;19.11;100.00;92912.72;5088367;28;20106;-73
2022/09/02 06:24:22;;;;;;;15.07;9.02;;;;;;;19.15;100.00;92906.69;5088665;28;20040;-73
2022/09/02 06:26:49;;;;;;;14.13;8.77;;;;;;;19.26;100.00;92919.63;5088539;28;20496;-73
2022/09/02 06:29:16;;;;;;;11.57;8.15;;;;;;;19.27;100.00;92916.78;5091023;28;20118;-73
2022/09/02 06:31:46;;;;;;;12.27;8.25;;;;;;;19.34;100.00;92922.44;5092277;28;20044;-73
2022/09/02 06:34:15;;;;;;;11.10;7.75;;;;;;;19.34;100.00;92912.03;5092185;28;20052;-73
2022/09/02 06:36:45;;;;;;;12.60;7.65;;;;;;;19.45;100.00;92924.97;5092000;28;20055;-73
2022/09/02 06:39:15;;;;;;;11.90;7.40;;;;;;;19.50;100.00;92930.16;5092072;28;20138;-73
2022/09/02 06:41:45;;;;;;;9.48;7.50;;;;;;;19.60;100.00;92932.69;5092437;28;20040;-73
2022/09/02 06:44:14;;;;;;;10.02;7.90;;;;;;;19.66;100.00;92932.66;5092207;28;20457;-73
2022/09/02 06:46:45;;;;;;;10.02;7.82;;;;;;;19.61;100.00;92926.41;5092518;28;20051;-73
2022/09/02 06:49:12;;;;;;;12.77;7.63;;;;;;;19.65;100.00;92928.47;5092269;28;20048;-73
2022/09/02 06:51:41;;;;;;;8.70;6.50;;;;;;;19.72;100.00;92940.13;5091628;28;20100;-73
2022/09/02 06:54:10;;;;;;;9.05;7.18;;;;;;;19.76;100.00;92945.56;5091388;28;20565;-73
2022/09/02 06:56:37;;;;;;;10.93;7.18;;;;;;;19.42;100.00;92947.13;5091756;28;20040;-73
2022/09/02 06:59:05;;;;;;;9.50;7.05;;;;;;;19.62;100.00;92951.41;5091245;28;20044;-73
2022/09/02 07:01:33;;;;;;;12.10;8.32;;;;;;;19.57;100.00;92943.63;5091117;28;20045;-73
2022/09/02 07:06:48;;;;;;;13.52;8.55;;;;;;;19.56;100.00;92946.50;5091888;28;20062;-73
2022/09/02 07:09:18;;;;;;;10.02;7.25;;;;;;;19.60;100.00;92953.53;5091552;28;20044;-73
2022/09/02 07:11:46;;;;;;;9.88;6.82;;;;;;;19.65;100.00;92939.69;5091517;28;20037;-73
2022/09/02 07:14:13;;;;;;;11.27;7.25;;;;;;;19.81;100.00;92944.78;5089745;28;20404;-73
2022/09/02 07:16:44;;;;;;;10.60;6.63;;;;;;;19.77;100.00;92942.69;5088767;28;20048;-73
2022/09/02 07:19:13;;;;;;;12.70;8.18;;;;;;;19.73;100.00;92944.28;5091358;28;20496;-73
2022/09/02 07:21:40;;;;;;;7.95;5.80;;;;;;;19.32;100.00;92950.59;5091382;28;20089;-73
2022/09/02 07:24:08;;;;;;;13.23;5.88;;;;;;;19.44;100.00;92949.47;5091097;28;20518;-73
2022/09/02 07:26:35;;;;;;;8.32;5.80;;;;;;;19.36;100.00;92950.81;5091478;28;20044;-73
2022/09/02 07:29:02;;;;;;;7.05;5.28;;;;;;;19.26;100.00;92956.09;5090864;28;20496;-73
2022/09/02 07:31:29;;;;;;;7.10;5.05;;;;;;;19.27;100.00;92955.84;5089424;28;20571;-73
2022/09/02 07:33:57;;;;;;;8.07;5.53;;;;;;;19.45;100.00;92964.81;5090141;28;20059;-73
2022/09/02 07:36:26;;;;;;;8.43;5.50;;;;;;;19.65;100.00;92957.13;5091200;28;20132;-73
2022/09/02 07:38:53;;;;;;;9.50;6.00;;;;;;;19.82;100.00;92964.56;5090891;28;20044;-73
2022/09/02 07:41:21;;;;;;;8.98;4.75;;;;;;;19.73;100.00;92965.13;5090947;28;20590;-73
2022/09/02 07:43:48;;;;;;;14.48;5.43;;;;;;;19.73;100.00;92969.59;5090799;28;20545;-73
2022/09/02 07:46:14;;;;;;;8.70;5.90;;;;;;;19.97;100.00;92964.47;5091366;28;20564;-73
2022/09/02 07:48:42;;;;;;;7.40;5.25;;;;;;;20.13;100.00;92964.31;5090815;28;20438;-73
2022/09/02 07:51:10;;;;;;;7.75;5.20;;;;;;;20.18;100.00;92973.94;5091058;28;20109;-73
2022/09/02 07:53:42;;;;;;;8.73;4.75;;;;;;;20.12;100.00;92955.72;5090175;28;20048;-73
2022/09/02 07:56:09;;;;;;;8.57;5.13;;;;;;;20.37;100.00;92979.22;5090465;28;20043;-73
2022/09/02 07:58:37;;;;;;;9.65;4.70;;;;;;;20.49;100.00;92978.84;5091444;28;20450;-73
2022/09/02 08:01:04;;;;;;;8.18;4.65;;;;;;;20.37;100.00;92984.44;5088448;28;20135;-72
2022/09/02 08:03:30;;;;;;;6.47;4.40;;;;;;;20.51;100.00;92985.31;5090460;28;20109;-73
2022/09/02 08:05:58;;;;;;;8.10;5.80;;;;;;;20.60;100.00;92995.94;5090510;28;20051;-73
2022/09/02 08:08:26;;;;;;;7.63;4.80;;;;;;;20.58;100.00;92994.66;5090700;28;20052;-73
2022/09/02 08:10:54;;;;;;;9.77;5.78;;;;;;;20.64;100.00;92996.94;5090374;28;20504;-73
2022/09/02 08:13:22;;;;;;;10.27;5.03;;;;;;;20.67;100.00;92993.00;5090690;28;20044;-73
2022/09/02 08:15:49;;;;;;;8.48;5.05;;;;;;;20.73;100.00;92991.13;5087439;28;20093;-73
2022/09/02 08:18:16;;;;;;;10.20;5.90;;;;;;;20.74;100.00;92995.28;5090630;28;20052;-73
2022/09/02 08:20:43;;;;;;;9.85;6.03;;;;;;;20.73;100.00;92991.13;5090292;28;20048;-74
2022/09/02 08:23:10;;;;;;;8.25;5.80;;;;;;;20.76;100.00;92991.34;5090366;28;20052;-74
2022/09/02 08:25:37;;;;;;;8.10;5.63;;;;;;;20.77;100.00;92990.28;5090318;28;20055;-72
2022/09/02 08:28:05;;;;;;;7.50;5.22;;;;;;;20.79;100.00;92995.22;5090233;28;20036;-73
2022/09/02 08:30:32;;;;;;;8.60;5.63;;;;;;;20.83;100.00;92988.41;5090365;28;20044;-72
2022/09/02 08:32:59;;;;;;;8.73;5.00;;;;;;;20.75;100.00;93005.44;5088352;28;20483;-72
2022/09/02 08:35:26;;;;;;;9.02;5.63;;;;;;;20.77;100.00;92986.88;5088213;28;20105;-72
2022/09/02 08:37:53;;;;;;;9.07;5.47;;;;;;;20.90;100.00;92996.69;5088228;28;20093;-72
2022/09/02 08:40:23;;;;;;;10.95;6.50;;;;;;;20.99;100.00;93002.06;5089773;28;20492;-72
2022/09/02 08:42:53;;;;;;;10.45;7.25;;;;;;;21.06;100.00;92991.28;5089317;28;20369;-72
2022/09/02 08:45:28;;;;;;;10.48;6.43;;;;;;;21.13;100.00;92994.31;5089357;28;20052;-72
2022/09/02 08:48:03;;;;;;;8.10;6.25;;;;;;;21.17;100.00;92987.50;5089596;28;20496;-72
2022/09/02 08:50:32;;;;;;;10.57;6.35;;;;;;;21.17;100.00;92986.69;5089702;28;20469;-72
2022/09/02 08:53:07;;;;;;;10.40;5.82;;;;;;;21.23;100.00;92982.97;5089805;28;20131;-72
2022/09/02 08:55:41;;;;;;;13.38;6.38;;;;;;;21.16;100.00;92985.16;5089908;28;20399;-72
2022/09/02 08:58:07;;;;;;;12.23;6.28;;;;;;;21.14;100.00;92984.63;5089781;28;20197;-72
2022/09/02 09:00:42;;;;;;;8.73;6.30;;;;;;;21.06;100.00;92963.31;5086125;28;20094;-73
2022/09/02 09:03:19;;;;;;;11.95;6.28;;;;;;;21.27;100.00;92991.00;5087621;28;20052;-72
2022/09/02 09:05:54;;;;;;;12.48;7.22;;;;;;;21.38;100.00;92984.56;5089706;28;20052;-72
2022/09/02 09:08:32;;;;;;;11.95;6.18;;;;;;;21.49;100.00;92983.38;5089288;28;20389;-73
2022/09/02 09:11:03;;;;;;;10.45;5.80;;;;;;;21.60;100.00;92988.47;5089829;28;20055;-72
2022/09/02 09:13:55;;;;;;;11.43;6.55;;;;;;;21.77;100.00;92988.00;5090053;28;20526;-73
2022/09/02 09:16:35;;;;;;;17.08;6.57;;;;;;;21.89;100.00;92988.31;5084215;28;20726;-73
2022/09/02 09:19:08;;;;;;;10.00;6.65;;;;;;;22.03;100.00;92979.72;5089423;28;20492;-72
2022/09/02 09:21:35;;;;;;;12.75;6.68;;;;;;;22.01;100.00;92982.63;5089539;28;20213;-72
2022/09/02 09:24:09;;;;;;;11.45;7.30;;;;;;;22.08;100.00;92989.34;5089249;28;20142;-72
2022/09/02 09:26:39;;;;;;;10.52;6.80;;;;;;;22.12;100.00;92990.31;5089433;28;20047;-72
2022/09/02 09:29:06;;;;;;;11.40;6.93;;;;;;;22.16;100.00;92993.91;5089210;28;20579;-73
2022/09/02 09:31:37;;;;;;;9.32;6.55;;;;;;;22.22;100.00;92982.28;5089186;28;20935;-73
2022/09/02 09:34:06;;;;;;;12.68;6.88;;;;;;;22.39;100.00;92981.72;5088237;28;20091;-72
2022/09/02 09:36:54;;;;;;;12.27;6.43;;;;;;;22.50;100.00;92976.31;5089238;28;20048;-72
2022/09/02 09:39:28;;;;;;;11.82;6.97;;;;;;;22.60;100.00;92981.41;5076171;28;20058;-72
2022/09/02 09:41:57;;;;;;;11.82;8.25;;;;;;;22.75;100.00;92984.78;5089313;28;20044;-72
2022/09/02 09:44:39;;;;;;;12.05;6.97;;;;;;;22.68;100.00;92985.94;5088978;28;20059;-72
2022/09/02 09:47:10;;;;;;;14.88;7.05;;;;;;;22.42;100.00;92977.75;5089452;28;20051;-72
2022/09/02 09:49:39;;;;;;;15.05;8.15;;;;;;;22.07;100.00;92980.69;5088984;28;20177;-72
2022/09/02 09:52:05;;;;;;;15.73;8.98;;;;;;;21.80;100.00;92976.94;5088960;28;20567;-72
2022/09/02 09:54:32;;;;;;;14.57;7.57;;;;;;;21.85;100.00;92969.03;5089166;28;20052;-72
2022/09/02 09:57:16;;;;;;;10.88;6.85;;;;;;;21.85;100.00;92966.41;5089214;28;20044;-72
2022/09/02 09:59:48;;;;;;;12.90;7.97;;;;;;;21.73;100.00;92968.69;5089150;28;20040;-72
2022/09/02 10:02:25;;;;;;;12.50;8.10;;;;;;;21.73;100.00;92963.47;5086492;28;20044;-72
2022/09/02 10:04:53;;;;;;;14.32;7.03;;;;;;;21.94;100.00;92963.16;5092755;28;20101;-73
2022/09/02 10:07:38;;;;;;;14.57;7.70;;;;;;;22.12;100.00;92961.56;5093188;28;20127;-72
2022/09/02 10:10:19;;;;;;;14.82;7.68;;;;;;;22.30;100.00;92954.69;5081017;28;20044;-72
2022/09/02 10:12:48;;;;;;;16.70;8.65;;;;;;;22.58;100.00;92967.81;5093109;28;20455;-72
2022/09/02 10:15:16;;;;;;;14.75;7.93;;;;;;;22.41;100.00;92971.75;5091075;28;20052;-72
2022/09/02 10:17:55;;;;;;;14.55;8.55;;;;;;;22.59;100.00;92977.22;5092602;28;20081;-72
2022/09/02 10:20:34;;;;;;;12.50;7.47;;;;;;;22.66;100.00;92966.34;5092875;28;20044;-73
2022/09/02 10:23:21;;;;;;;19.35;8.43;;;;;;;22.76;100.00;92968.00;5092621;28;20083;-72
2022/09/02 10:25:59;;;;;;;13.48;8.60;;;;;;;22.83;100.00;92963.16;5092866;28;20047;-72
2022/09/02 10:28:46;;;;;;;13.60;7.93;;;;;;;22.72;100.00;92967.81;5092473;28;20491;-72
2022/09/02 10:31:22;;;;;;;13.35;8.05;;;;;;;22.68;100.00;92959.00;5092605;28;20040;-72
2022/09/02 10:34:05;;;;;;;11.27;7.80;;;;;;;22.99;100.00;92961.00;5092429;28;20496;-72
2022/09/02 10:36:37;;;;;;;13.65;8.98;;;;;;;23.08;100.00;92942.75;5092058;28;20040;-73
2022/09/02 10:39:19;;;;;;;13.98;8.77;;;;;;;23.00;100.00;92946.81;5091750;28;20093;-73
2022/09/02 10:41:47;;;;;;;14.00;8.82;;;;;;;22.85;100.00;92953.16;5092356;28;20083;-72
2022/09/02 10:44:33;;;;;;;14.07;8.18;;;;;;;23.12;100.00;92956.03;5091616;28;20048;-72
2022/09/02 10:47:02;;;;;;;14.30;8.73;;;;;;;22.59;100.00;92958.13;5092193;28;20093;-73
2022/09/02 10:49:51;;;;;;;16.95;9.05;;;;;;;23.29;100.00;92950.16;5091459;28;20044;-72
2022/09/02 10:52:34;;;;;;;13.20;9.13;;;;;;;23.41;100.00;92953.06;5092191;28;20052;-73
2022/09/02 10:55:12;;;;;;;15.18;8.40;;;;;;;22.95;100.00;92950.34;5085038;28;20106;-72
2022/09/02 10:57:47;;;;;;;14.82;9.57;;;;;;;22.74;100.00;92939.50;5075751;28;20040;-73
2022/09/02 11:00:17;;;;;;;15.37;8.77;;;;;;;23.35;100.00;92946.38;5091585;28;20048;-72
2022/09/02 11:02:51;;;;;;;15.32;9.80;;;;;;;23.71;100.00;92947.41;5085238;28;20384;-73
2022/09/02 11:05:25;;;;;;;14.02;8.88;;;;;;;23.28;100.00;92948.63;5091886;28;20101;-73
2022/09/02 11:07:58;;;;;;;13.38;9.48;;;;;;;22.83;100.00;92939.59;5091927;28;20054;-72
2022/09/02 11:10:29;;;;;;;13.80;9.18;;;;;;;23.15;100.00;92932.63;5091714;28;20093;-72
2022/09/02 11:13:04;;;;;;;12.00;9.95;;;;;;;23.79;100.00;92943.31;5091856;28;20036;-73
2022/09/02 11:15:44;;;;;;;13.70;10.00;;;;;;;24.30;100.00;92936.03;5078120;28;20446;-73
2022/09/02 11:18:18;;;;;;;14.52;9.88;;;;;;;24.66;100.00;92939.53;5081627;28;20221;-73
2022/09/02 11:20:52;;;;;;;13.48;9.20;;;;;;;25.06;100.00;92936.09;5089016;28;20048;-72
2022/09/02 11:23:27;;;;;;;14.95;9.20;;;;;;;25.35;93.02;92942.63;5090624;28;20047;-72
2022/09/02 11:25:59;;;;;;;16.00;8.50;;;;;;;25.31;89.05;92933.78;5091195;28;20044;-72
2022/09/02 11:28:39;;;;;;;12.00;8.70;;;;;;;25.45;92.77;92933.63;5090157;28;20094;-72
2022/09/02 11:31:12;;;;;;;16.33;8.82;;;;;;;25.89;97.01;92928.38;5089217;28;20044;-73
2022/09/02 11:33:54;;;;;;;17.15;9.13;;;;;;;25.83;87.65;92937.53;5089011;28;20113;-73